sensor_id;sensor_type;location;lat;lon;timestamp;temperature;humidity
54178;DHT22;40085;53.004;6.770;2023-11-18T00:02:23;3.20;99.90
54178;DHT22;40085;53.004;6.770;2023-11-18T00:04:50;3.20;99.90
54178;DHT22;40085;53.004;6.770;2023-11-18T00:07:17;4.80;99.90
54178;DHT22;40085;53.004;6.770;2023-11-18T00:09:42;3.30;99.90
54178;DHT22;40085;53.004;6.770;2023-11-18T00:12:11;3.20;99.90
54178;DHT22;40085;53.004;6.770;2023-11-18T00:14:37;3.20;99.90
54178;DHT22;40085;53.004;6.770;2023-11-18T00:17:03;4.20;99.90
54178;DHT22;40085;53.004;6.770;2023-11-18T00:19:30;3.20;99.90
54178;DHT22;40085;53.004;6.770;2023-11-18T00:21:55;3.20;99.90
54178;DHT22;40085;53.004;6.770;2023-11-18T00:24:21;3.20;99.90
54178;DHT22;40085;53.004;6.770;2023-11-18T00:26:47;3.20;99.90
54178;DHT22;40085;53.004;6.770;2023-11-18T00:29:12;3.10;99.90
54178;DHT22;40085;53.004;6.770;2023-11-18T00:31:38;3.10;99.90
54178;DHT22;40085;53.004;6.770;2023-11-18T00:34:04;3.10;99.90
54178;DHT22;40085;53.004;6.770;2023-11-18T00:36:29;3.00;99.90
54178;DHT22;40085;53.004;6.770;2023-11-18T00:38:55;3.00;99.90
54178;DHT22;40085;53.004;6.770;2023-11-18T00:41:21;2.90;99.90
54178;DHT22;40085;53.004;6.770;2023-11-18T00:43:47;2.90;99.90
54178;DHT22;40085;53.004;6.770;2023-11-18T00:46:12;2.90;99.90
54178;DHT22;40085;53.004;6.770;2023-11-18T00:48:38;2.90;99.90
54178;DHT22;40085;53.004;6.770;2023-11-18T00:51:06;2.90;99.90
54178;DHT22;40085;53.004;6.770;2023-11-18T00:53:31;2.90;99.90
54178;DHT22;40085;53.004;6.770;2023-11-18T00:55:57;4.10;99.90
54178;DHT22;40085;53.004;6.770;2023-11-18T00:58:22;2.80;99.90
54178;DHT22;40085;53.004;6.770;2023-11-18T01:00:48;2.80;99.90
54178;DHT22;40085;53.004;6.770;2023-11-18T01:03:14;2.70;99.90
54178;DHT22;40085;53.004;6.770;2023-11-18T01:05:39;2.70;99.90
54178;DHT22;40085;53.004;6.770;2023-11-18T01:08:05;2.70;99.90
54178;DHT22;40085;53.004;6.770;2023-11-18T01:10:30;2.60;99.90
54178;DHT22;40085;53.004;6.770;2023-11-18T01:12:56;2.60;99.90
54178;DHT22;40085;53.004;6.770;2023-11-18T01:15:23;2.60;99.90
54178;DHT22;40085;53.004;6.770;2023-11-18T01:17:49;2.50;99.90
54178;DHT22;40085;53.004;6.770;2023-11-18T04:02:58;3.10;99.90
54178;DHT22;40085;53.004;6.770;2023-11-18T04:05:24;2.90;99.90
54178;DHT22;40085;53.004;6.770;2023-11-18T04:07:50;2.80;99.90
54178;DHT22;40085;53.004;6.770;2023-11-18T04:10:17;2.90;99.90
54178;DHT22;40085;53.004;6.770;2023-11-18T04:12:44;4.20;99.90
54178;DHT22;40085;53.004;6.770;2023-11-18T04:15:14;2.80;99.90
54178;DHT22;40085;53.004;6.770;2023-11-18T04:17:39;2.80;99.90
54178;DHT22;40085;53.004;6.770;2023-11-18T04:20:06;2.90;99.90
54178;DHT22;40085;53.004;6.770;2023-11-18T04:22:40;2.80;99.90
54178;DHT22;40085;53.004;6.770;2023-11-18T04:25:08;4.30;99.90
54178;DHT22;40085;53.004;6.770;2023-11-18T04:27:34;2.90;99.90
54178;DHT22;40085;53.004;6.770;2023-11-18T04:29:59;2.90;99.90
54178;DHT22;40085;53.004;6.770;2023-11-18T04:32:25;4.30;99.90
54178;DHT22;40085;53.004;6.770;2023-11-18T04:34:50;3.00;99.90
54178;DHT22;40085;53.004;6.770;2023-11-18T04:37:16;3.00;99.90
54178;DHT22;40085;53.004;6.770;2023-11-18T04:39:42;3.00;99.90
54178;DHT22;40085;53.004;6.770;2023-11-18T04:42:08;3.00;99.90
54178;DHT22;40085;53.004;6.770;2023-11-18T04:44:33;3.00;99.90
54178;DHT22;40085;53.004;6.770;2023-11-18T04:46:59;3.00;99.90
54178;DHT22;40085;53.004;6.770;2023-11-18T04:49:26;3.00;99.90
54178;DHT22;40085;53.004;6.770;2023-11-18T04:51:52;3.00;99.90
54178;DHT22;40085;53.004;6.770;2023-11-18T04:54:17;3.10;99.90
54178;DHT22;40085;53.004;6.770;2023-11-18T04:56:44;4.20;99.90
54178;DHT22;40085;53.004;6.770;2023-11-18T04:59:10;3.10;99.90
54178;DHT22;40085;53.004;6.770;2023-11-18T05:01:36;4.90;99.90
54178;DHT22;40085;53.004;6.770;2023-11-18T05:04:03;3.10;99.90
54178;DHT22;40085;53.004;6.770;2023-11-18T05:06:29;3.20;99.90
54178;DHT22;40085;53.004;6.770;2023-11-18T05:08:55;5.10;99.90
54178;DHT22;40085;53.004;6.770;2023-11-18T05:11:20;4.90;99.90
54178;DHT22;40085;53.004;6.770;2023-11-18T05:13:46;3.20;99.90
54178;DHT22;40085;53.004;6.770;2023-11-18T05:16:11;3.20;99.90
54178;DHT22;40085;53.004;6.770;2023-11-18T05:18:37;3.30;99.90
54178;DHT22;40085;53.004;6.770;2023-11-18T05:21:04;3.30;99.90
54178;DHT22;40085;53.004;6.770;2023-11-18T05:23:31;3.40;99.90
54178;DHT22;40085;53.004;6.770;2023-11-18T05:25:59;3.60;99.90
54178;DHT22;40085;53.004;6.770;2023-11-18T05:28:25;3.40;99.90
54178;DHT22;40085;53.004;6.770;2023-11-18T05:30:53;3.30;99.90
54178;DHT22;40085;53.004;6.770;2023-11-18T05:33:23;5.30;99.90
54178;DHT22;40085;53.004;6.770;2023-11-18T05:35:49;4.50;99.90
54178;DHT22;40085;53.004;6.770;2023-11-18T05:38:18;3.50;99.90
54178;DHT22;40085;53.004;6.770;2023-11-18T05:40:50;3.40;99.90
54178;DHT22;40085;53.004;6.770;2023-11-18T05:43:32;3.50;99.90
54178;DHT22;40085;53.004;6.770;2023-11-18T05:46:06;4.70;99.90
54178;DHT22;40085;53.004;6.770;2023-11-18T05:48:49;3.40;99.90
54178;DHT22;40085;53.004;6.770;2023-11-18T05:51:22;3.50;99.90
54178;DHT22;40085;53.004;6.770;2023-11-18T05:53:48;3.60;99.90
54178;DHT22;40085;53.004;6.770;2023-11-18T05:56:14;5.00;99.90
54178;DHT22;40085;53.004;6.770;2023-11-18T05:58:42;5.30;99.90
54178;DHT22;40085;53.004;6.770;2023-11-18T06:01:12;2.30;99.90
54178;DHT22;40085;53.004;6.770;2023-11-18T06:03:39;3.60;99.90
54178;DHT22;40085;53.004;6.770;2023-11-18T06:06:20;3.40;99.90
54178;DHT22;40085;53.004;6.770;2023-11-18T06:08:47;3.50;99.90
54178;DHT22;40085;53.004;6.770;2023-11-18T06:11:16;3.90;99.90
54178;DHT22;40085;53.004;6.770;2023-11-18T06:13:51;3.60;99.90
54178;DHT22;40085;53.004;6.770;2023-11-18T06:16:18;3.50;99.90
54178;DHT22;40085;53.004;6.770;2023-11-18T06:18:55;3.60;99.90
54178;DHT22;40085;53.004;6.770;2023-11-18T06:21:24;3.70;99.90
54178;DHT22;40085;53.004;6.770;2023-11-18T06:23:57;3.70;99.90
54178;DHT22;40085;53.004;6.770;2023-11-18T06:26:32;3.40;99.90
54178;DHT22;40085;53.004;6.770;2023-11-18T06:29:04;4.80;99.90
54178;DHT22;40085;53.004;6.770;2023-11-18T06:31:33;1.70;99.90
54178;DHT22;40085;53.004;6.770;2023-11-18T06:33:59;5.40;99.90
54178;DHT22;40085;53.004;6.770;2023-11-18T06:36:24;4.80;99.90
54178;DHT22;40085;53.004;6.770;2023-11-18T06:38:52;2.10;99.90
54178;DHT22;40085;53.004;6.770;2023-11-18T06:41:22;4.90;99.90
54178;DHT22;40085;53.004;6.770;2023-11-18T06:44:00;1.70;99.90
54178;DHT22;40085;53.004;6.770;2023-11-18T06:46:32;4.60;99.90
54178;DHT22;40085;53.004;6.770;2023-11-18T06:49:00;5.40;99.90
54178;DHT22;40085;53.004;6.770;2023-11-18T06:51:34;4.60;99.90
54178;DHT22;40085;53.004;6.770;2023-11-18T06:54:08;5.20;99.90
54178;DHT22;40085;53.004;6.770;2023-11-18T06:56:40;4.40;99.90
54178;DHT22;40085;53.004;6.770;2023-11-18T06:59:10;3.30;99.90
54178;DHT22;40085;53.004;6.770;2023-11-18T07:01:42;4.60;99.90
54178;DHT22;40085;53.004;6.770;2023-11-18T07:04:17;3.20;99.90
54178;DHT22;40085;53.004;6.770;2023-11-18T07:07:07;4.50;99.90
54178;DHT22;40085;53.004;6.770;2023-11-18T07:09:37;4.90;99.90
54178;DHT22;40085;53.004;6.770;2023-11-18T07:12:10;3.50;99.90
54178;DHT22;40085;53.004;6.770;2023-11-18T07:14:55;4.20;99.90
54178;DHT22;40085;53.004;6.770;2023-11-18T07:17:44;5.00;99.90
54178;DHT22;40085;53.004;6.770;2023-11-18T07:20:10;4.80;99.90
54178;DHT22;40085;53.004;6.770;2023-11-18T07:23:05;3.40;99.90
54178;DHT22;40085;53.004;6.770;2023-11-18T07:25:50;4.30;99.90
54178;DHT22;40085;53.004;6.770;2023-11-18T07:28:21;5.10;99.90
54178;DHT22;40085;53.004;6.770;2023-11-18T07:30:48;4.60;99.90
54178;DHT22;40085;53.004;6.770;2023-11-18T07:33:19;4.90;99.90
54178;DHT22;40085;53.004;6.770;2023-11-18T07:35:58;4.80;99.90
54178;DHT22;40085;53.004;6.770;2023-11-18T07:38:24;3.40;99.90
54178;DHT22;40085;53.004;6.770;2023-11-18T07:40:50;4.90;99.90
54178;DHT22;40085;53.004;6.770;2023-11-18T07:43:18;3.90;99.90
54178;DHT22;40085;53.004;6.770;2023-11-18T07:45:47;5.30;99.90
54178;DHT22;40085;53.004;6.770;2023-11-18T07:48:15;5.60;99.90
54178;DHT22;40085;53.004;6.770;2023-11-18T07:50:43;3.40;99.90
54178;DHT22;40085;53.004;6.770;2023-11-18T07:53:11;5.10;99.90
54178;DHT22;40085;53.004;6.770;2023-11-18T07:55:37;3.80;99.90
54178;DHT22;40085;53.004;6.770;2023-11-18T07:58:11;3.90;99.90
54178;DHT22;40085;53.004;6.770;2023-11-18T08:00:41;3.80;99.90
54178;DHT22;40085;53.004;6.770;2023-11-18T08:03:14;3.90;99.90
54178;DHT22;40085;53.004;6.770;2023-11-18T08:05:41;3.50;99.90
54178;DHT22;40085;53.004;6.770;2023-11-18T08:08:11;3.90;99.90
54178;DHT22;40085;53.004;6.770;2023-11-18T08:10:38;5.20;99.90
54178;DHT22;40085;53.004;6.770;2023-11-18T08:13:08;5.40;99.90
54178;DHT22;40085;53.004;6.770;2023-11-18T08:15:35;3.80;99.90
54178;DHT22;40085;53.004;6.770;2023-11-18T08:18:03;3.90;99.90
54178;DHT22;40085;53.004;6.770;2023-11-18T08:20:29;4.90;99.90
54178;DHT22;40085;53.004;6.770;2023-11-18T08:22:55;3.80;99.90
54178;DHT22;40085;53.004;6.770;2023-11-18T08:25:21;5.90;99.90
54178;DHT22;40085;53.004;6.770;2023-11-18T08:27:48;5.70;99.90
54178;DHT22;40085;53.004;6.770;2023-11-18T08:30:14;4.50;99.90
54178;DHT22;40085;53.004;6.770;2023-11-18T08:32:45;4.00;99.90
54178;DHT22;40085;53.004;6.770;2023-11-18T08:35:11;3.60;99.90
54178;DHT22;40085;53.004;6.770;2023-11-18T08:37:41;4.00;99.90
54178;DHT22;40085;53.004;6.770;2023-11-18T08:40:08;4.30;99.90
54178;DHT22;40085;53.004;6.770;2023-11-18T08:42:49;4.20;99.90
54178;DHT22;40085;53.004;6.770;2023-11-18T08:45:20;6.20;99.90
54178;DHT22;40085;53.004;6.770;2023-11-18T08:47:59;4.10;99.90
54178;DHT22;40085;53.004;6.770;2023-11-18T08:50:27;4.30;99.90
54178;DHT22;40085;53.004;6.770;2023-11-18T08:52:55;4.20;99.90
54178;DHT22;40085;53.004;6.770;2023-11-18T08:55:28;4.20;99.90
54178;DHT22;40085;53.004;6.770;2023-11-18T08:58:10;5.80;99.90
54178;DHT22;40085;53.004;6.770;2023-11-18T09:00:51;4.10;99.90
54178;DHT22;40085;53.004;6.770;2023-11-18T09:03:18;4.30;99.90
54178;DHT22;40085;53.004;6.770;2023-11-18T09:05:51;4.30;99.90
54178;DHT22;40085;53.004;6.770;2023-11-18T09:11:02;4.30;99.90
54178;DHT22;40085;53.004;6.770;2023-11-18T09:13:28;4.80;99.90
54178;DHT22;40085;53.004;6.770;2023-11-18T09:16:09;4.10;99.90
54178;DHT22;40085;53.004;6.770;2023-11-18T09:21:54;4.10;99.90
54178;DHT22;40085;53.004;6.770;2023-11-18T09:24:20;5.40;99.90
54178;DHT22;40085;53.004;6.770;2023-11-18T09:26:59;6.50;99.90
54178;DHT22;40085;53.004;6.770;2023-11-18T09:29:24;5.00;99.90
54178;DHT22;40085;53.004;6.770;2023-11-18T09:31:50;3.80;99.90
54178;DHT22;40085;53.004;6.770;2023-11-18T09:34:19;3.20;99.90
54178;DHT22;40085;53.004;6.770;2023-11-18T09:36:54;5.00;99.90
54178;DHT22;40085;53.004;6.770;2023-11-18T09:39:19;6.30;99.90
54178;DHT22;40085;53.004;6.770;2023-11-18T09:42:07;6.70;99.90
54178;DHT22;40085;53.004;6.770;2023-11-18T09:44:43;5.70;99.90
54178;DHT22;40085;53.004;6.770;2023-11-18T09:47:10;4.60;99.90
54178;DHT22;40085;53.004;6.770;2023-11-18T09:49:41;4.60;99.90
54178;DHT22;40085;53.004;6.770;2023-11-18T09:52:15;4.70;99.90
54178;DHT22;40085;53.004;6.770;2023-11-18T09:54:56;4.70;99.90
54178;DHT22;40085;53.004;6.770;2023-11-18T09:57:31;4.60;99.90
54178;DHT22;40085;53.004;6.770;2023-11-18T10:00:06;4.70;99.90
54178;DHT22;40085;53.004;6.770;2023-11-18T10:02:52;4.70;99.90
54178;DHT22;40085;53.004;6.770;2023-11-18T10:05:22;4.60;99.90
54178;DHT22;40085;53.004;6.770;2023-11-18T10:07:49;4.70;99.90
54178;DHT22;40085;53.004;6.770;2023-11-18T10:10:15;4.70;99.90
54178;DHT22;40085;53.004;6.770;2023-11-18T10:12:44;4.70;99.90
54178;DHT22;40085;53.004;6.770;2023-11-18T10:15:13;4.70;99.90
54178;DHT22;40085;53.004;6.770;2023-11-18T10:17:43;4.70;99.90
54178;DHT22;40085;53.004;6.770;2023-11-18T10:20:51;4.70;99.90
54178;DHT22;40085;53.004;6.770;2023-11-18T10:23:18;4.70;99.90
54178;DHT22;40085;53.004;6.770;2023-11-18T10:28:27;4.80;99.90
54178;DHT22;40085;53.004;6.770;2023-11-18T10:30:54;4.80;99.90
54178;DHT22;40085;53.004;6.770;2023-11-18T10:33:26;4.80;99.90
54178;DHT22;40085;53.004;6.770;2023-11-18T10:35:57;4.80;99.90
54178;DHT22;40085;53.004;6.770;2023-11-18T10:38:23;4.70;99.90
54178;DHT22;40085;53.004;6.770;2023-11-18T10:40:55;4.70;99.90
54178;DHT22;40085;53.004;6.770;2023-11-18T10:43:22;4.80;99.90
54178;DHT22;40085;53.004;6.770;2023-11-18T10:46:07;4.70;99.90
54178;DHT22;40085;53.004;6.770;2023-11-18T10:48:41;4.70;99.90
54178;DHT22;40085;53.004;6.770;2023-11-18T10:51:11;4.80;99.90
54178;DHT22;40085;53.004;6.770;2023-11-18T10:53:38;4.70;99.90
54178;DHT22;40085;53.004;6.770;2023-11-18T10:56:05;4.70;99.90
54178;DHT22;40085;53.004;6.770;2023-11-18T10:58:37;4.70;99.90
54178;DHT22;40085;53.004;6.770;2023-11-18T11:01:06;4.80;99.90
54178;DHT22;40085;53.004;6.770;2023-11-18T11:03:52;4.70;99.90
54178;DHT22;40085;53.004;6.770;2023-11-18T11:06:22;4.70;99.90
54178;DHT22;40085;53.004;6.770;2023-11-18T11:08:50;4.80;99.90
54178;DHT22;40085;53.004;6.770;2023-11-18T11:11:20;4.80;99.90
54178;DHT22;40085;53.004;6.770;2023-11-18T11:13:49;4.70;99.90
54178;DHT22;40085;53.004;6.770;2023-11-18T11:16:18;4.80;99.90
54178;DHT22;40085;53.004;6.770;2023-11-18T11:18:50;4.80;99.90
54178;DHT22;40085;53.004;6.770;2023-11-18T11:21:30;4.80;99.90
54178;DHT22;40085;53.004;6.770;2023-11-18T11:24:06;4.90;99.90
54178;DHT22;40085;53.004;6.770;2023-11-18T11:26:54;4.90;99.90
54178;DHT22;40085;53.004;6.770;2023-11-18T11:29:26;4.90;99.90
54178;DHT22;40085;53.004;6.770;2023-11-18T11:35:07;5.00;99.90
54178;DHT22;40085;53.004;6.770;2023-11-18T11:37:43;5.00;99.90
54178;DHT22;40085;53.004;6.770;2023-11-18T11:40:11;5.00;99.90
54178;DHT22;40085;53.004;6.770;2023-11-18T11:42:40;5.00;99.90
54178;DHT22;40085;53.004;6.770;2023-11-18T11:45:08;5.00;99.90
54178;DHT22;40085;53.004;6.770;2023-11-18T11:47:47;5.10;99.90
54178;DHT22;40085;53.004;6.770;2023-11-18T11:50:35;5.10;99.90
54178;DHT22;40085;53.004;6.770;2023-11-18T11:53:12;5.10;99.90
54178;DHT22;40085;53.004;6.770;2023-11-18T11:55:47;5.10;99.90
54178;DHT22;40085;53.004;6.770;2023-11-18T11:58:27;5.10;99.90
54178;DHT22;40085;53.004;6.770;2023-11-18T12:00:53;5.20;99.90
54178;DHT22;40085;53.004;6.770;2023-11-18T12:03:22;5.20;99.90
54178;DHT22;40085;53.004;6.770;2023-11-18T12:05:55;5.20;99.90
54178;DHT22;40085;53.004;6.770;2023-11-18T12:08:24;5.20;99.90
54178;DHT22;40085;53.004;6.770;2023-11-18T12:10:51;5.20;99.90
54178;DHT22;40085;53.004;6.770;2023-11-18T12:13:23;5.20;99.90
54178;DHT22;40085;53.004;6.770;2023-11-18T12:15:55;5.20;99.90
54178;DHT22;40085;53.004;6.770;2023-11-18T12:18:24;5.20;99.90
54178;DHT22;40085;53.004;6.770;2023-11-18T12:20:50;5.30;99.90
54178;DHT22;40085;53.004;6.770;2023-11-18T12:23:21;5.30;99.90
54178;DHT22;40085;53.004;6.770;2023-11-18T12:25:51;5.30;99.90
54178;DHT22;40085;53.004;6.770;2023-11-18T12:28:24;5.30;99.90
54178;DHT22;40085;53.004;6.770;2023-11-18T12:30:53;5.30;99.90
54178;DHT22;40085;53.004;6.770;2023-11-18T12:33:52;5.40;99.90
54178;DHT22;40085;53.004;6.770;2023-11-18T12:42:04;5.40;99.90
54178;DHT22;40085;53.004;6.770;2023-11-18T12:47:42;5.40;99.90
54178;DHT22;40085;53.004;6.770;2023-11-18T12:50:11;5.50;99.90
54178;DHT22;40085;53.004;6.770;2023-11-18T12:52:43;5.50;99.90
54178;DHT22;40085;53.004;6.770;2023-11-18T12:55:12;5.50;99.90
54178;DHT22;40085;53.004;6.770;2023-11-18T12:57:46;5.50;99.90
54178;DHT22;40085;53.004;6.770;2023-11-18T13:00:13;5.50;99.90
54178;DHT22;40085;53.004;6.770;2023-11-18T13:02:42;5.50;99.90
54178;DHT22;40085;53.004;6.770;2023-11-18T13:05:08;5.50;99.90
54178;DHT22;40085;53.004;6.770;2023-11-18T13:07:39;5.50;99.90
54178;DHT22;40085;53.004;6.770;2023-11-18T13:10:05;5.50;99.90
54178;DHT22;40085;53.004;6.770;2023-11-18T13:12:31;5.40;99.90
54178;DHT22;40085;53.004;6.770;2023-11-18T13:14:57;5.50;99.90
54178;DHT22;40085;53.004;6.770;2023-11-18T13:17:22;5.40;99.90
54178;DHT22;40085;53.004;6.770;2023-11-18T13:19:48;5.40;99.90
54178;DHT22;40085;53.004;6.770;2023-11-18T13:22:17;5.40;99.90
54178;DHT22;40085;53.004;6.770;2023-11-18T13:24:45;5.30;99.90
54178;DHT22;40085;53.004;6.770;2023-11-18T13:27:15;5.40;99.90
54178;DHT22;40085;53.004;6.770;2023-11-18T13:29:45;5.40;99.90
54178;DHT22;40085;53.004;6.770;2023-11-18T13:32:11;5.30;99.90
54178;DHT22;40085;53.004;6.770;2023-11-18T13:34:39;5.30;99.90
54178;DHT22;40085;53.004;6.770;2023-11-18T13:37:10;5.30;99.90
54178;DHT22;40085;53.004;6.770;2023-11-18T13:39:38;5.30;99.90
54178;DHT22;40085;53.004;6.770;2023-11-18T13:42:20;5.60;99.90
54178;DHT22;40085;53.004;6.770;2023-11-18T13:44:47;5.30;99.90
54178;DHT22;40085;53.004;6.770;2023-11-18T13:47:16;5.30;99.90
54178;DHT22;40085;53.004;6.770;2023-11-18T13:49:42;5.40;99.90
54178;DHT22;40085;53.004;6.770;2023-11-18T13:52:09;5.40;99.90
54178;DHT22;40085;53.004;6.770;2023-11-18T13:54:39;5.40;99.90
54178;DHT22;40085;53.004;6.770;2023-11-18T13:57:08;5.30;99.90
54178;DHT22;40085;53.004;6.770;2023-11-18T13:59:35;5.40;99.90
54178;DHT22;40085;53.004;6.770;2023-11-18T14:02:01;5.40;99.90
54178;DHT22;40085;53.004;6.770;2023-11-18T14:04:31;5.40;99.90
54178;DHT22;40085;53.004;6.770;2023-11-18T14:07:03;5.40;99.90
54178;DHT22;40085;53.004;6.770;2023-11-18T14:09:31;5.40;99.90
54178;DHT22;40085;53.004;6.770;2023-11-18T14:12:02;5.40;99.90
54178;DHT22;40085;53.004;6.770;2023-11-18T14:14:28;5.40;99.90
54178;DHT22;40085;53.004;6.770;2023-11-18T14:16:55;5.40;99.90
54178;DHT22;40085;53.004;6.770;2023-11-18T14:19:28;5.50;99.90
54178;DHT22;40085;53.004;6.770;2023-11-18T14:21:54;5.40;99.90
54178;DHT22;40085;53.004;6.770;2023-11-18T14:24:21;5.50;99.90
54178;DHT22;40085;53.004;6.770;2023-11-18T14:26:56;5.40;99.90
54178;DHT22;40085;53.004;6.770;2023-11-18T14:29:22;5.50;99.90
54178;DHT22;40085;53.004;6.770;2023-11-18T14:31:48;5.50;99.90
54178;DHT22;40085;53.004;6.770;2023-11-18T14:34:14;5.50;99.90
54178;DHT22;40085;53.004;6.770;2023-11-18T14:36:41;5.50;99.90
54178;DHT22;40085;53.004;6.770;2023-11-18T14:39:09;5.50;99.90
54178;DHT22;40085;53.004;6.770;2023-11-18T14:41:43;5.50;99.90
54178;DHT22;40085;53.004;6.770;2023-11-18T14:44:09;5.50;99.90
54178;DHT22;40085;53.004;6.770;2023-11-18T14:46:35;5.60;99.90
54178;DHT22;40085;53.004;6.770;2023-11-18T14:49:04;5.60;99.90
54178;DHT22;40085;53.004;6.770;2023-11-18T14:51:31;5.60;99.90
54178;DHT22;40085;53.004;6.770;2023-11-18T14:53:57;5.60;99.90
54178;DHT22;40085;53.004;6.770;2023-11-18T14:56:22;5.60;99.90
54178;DHT22;40085;53.004;6.770;2023-11-18T14:58:48;5.60;99.90
54178;DHT22;40085;53.004;6.770;2023-11-18T15:01:15;5.60;99.90
54178;DHT22;40085;53.004;6.770;2023-11-18T15:03:41;5.60;99.90
54178;DHT22;40085;53.004;6.770;2023-11-18T15:06:07;5.70;99.90
54178;DHT22;40085;53.004;6.770;2023-11-18T15:08:35;5.70;99.90
54178;DHT22;40085;53.004;6.770;2023-11-18T15:11:01;5.70;99.90
54178;DHT22;40085;53.004;6.770;2023-11-18T15:13:27;5.70;99.90
54178;DHT22;40085;53.004;6.770;2023-11-18T15:15:53;5.80;99.90
54178;DHT22;40085;53.004;6.770;2023-11-18T15:18:19;5.70;99.90
54178;DHT22;40085;53.004;6.770;2023-11-18T15:20:48;5.80;99.90
54178;DHT22;40085;53.004;6.770;2023-11-18T15:23:16;5.80;99.90
54178;DHT22;40085;53.004;6.770;2023-11-18T15:25:47;5.80;99.90
54178;DHT22;40085;53.004;6.770;2023-11-18T15:28:16;5.80;99.90
54178;DHT22;40085;53.004;6.770;2023-11-18T15:30:43;5.80;99.90
54178;DHT22;40085;53.004;6.770;2023-11-18T15:33:11;5.80;99.90
54178;DHT22;40085;53.004;6.770;2023-11-18T15:35:39;5.80;99.90
54178;DHT22;40085;53.004;6.770;2023-11-18T15:38:12;5.80;99.90
54178;DHT22;40085;53.004;6.770;2023-11-18T15:40:42;5.80;99.90
54178;DHT22;40085;53.004;6.770;2023-11-18T15:43:08;5.80;99.90
54178;DHT22;40085;53.004;6.770;2023-11-18T15:45:37;5.90;99.90
54178;DHT22;40085;53.004;6.770;2023-11-18T15:48:03;5.90;99.90
54178;DHT22;40085;53.004;6.770;2023-11-18T15:50:36;5.90;99.90
54178;DHT22;40085;53.004;6.770;2023-11-18T15:53:03;6.20;99.90
54178;DHT22;40085;53.004;6.770;2023-11-18T15:55:31;5.90;99.90
54178;DHT22;40085;53.004;6.770;2023-11-18T15:57:57;5.90;99.90
54178;DHT22;40085;53.004;6.770;2023-11-18T16:00:24;5.90;99.90
54178;DHT22;40085;53.004;6.770;2023-11-18T16:02:54;6.00;99.90
54178;DHT22;40085;53.004;6.770;2023-11-18T16:05:21;5.90;99.90
54178;DHT22;40085;53.004;6.770;2023-11-18T16:07:52;6.00;99.90
54178;DHT22;40085;53.004;6.770;2023-11-18T16:10:21;6.00;99.90
54178;DHT22;40085;53.004;6.770;2023-11-18T16:12:48;6.00;99.90
54178;DHT22;40085;53.004;6.770;2023-11-18T16:15:14;6.00;99.90
54178;DHT22;40085;53.004;6.770;2023-11-18T16:17:41;6.00;99.90
54178;DHT22;40085;53.004;6.770;2023-11-18T16:20:07;6.00;99.90
54178;DHT22;40085;53.004;6.770;2023-11-18T16:22:34;6.00;99.90
54178;DHT22;40085;53.004;6.770;2023-11-18T16:25:01;6.00;99.90
54178;DHT22;40085;53.004;6.770;2023-11-18T16:27:30;6.10;99.90
54178;DHT22;40085;53.004;6.770;2023-11-18T16:29:56;6.10;99.90
54178;DHT22;40085;53.004;6.770;2023-11-18T16:32:21;6.10;99.90
54178;DHT22;40085;53.004;6.770;2023-11-18T16:34:47;6.10;99.90
54178;DHT22;40085;53.004;6.770;2023-11-18T16:37:13;6.20;99.90
54178;DHT22;40085;53.004;6.770;2023-11-18T16:39:41;6.10;99.90
54178;DHT22;40085;53.004;6.770;2023-11-18T16:42:06;6.10;99.90
54178;DHT22;40085;53.004;6.770;2023-11-18T16:44:32;6.20;99.90
54178;DHT22;40085;53.004;6.770;2023-11-18T16:46:58;6.10;99.90
54178;DHT22;40085;53.004;6.770;2023-11-18T16:49:24;6.10;99.90
54178;DHT22;40085;53.004;6.770;2023-11-18T16:51:50;6.20;99.90
54178;DHT22;40085;53.004;6.770;2023-11-18T16:54:20;6.10;99.90
54178;DHT22;40085;53.004;6.770;2023-11-18T16:56:45;6.20;99.90
54178;DHT22;40085;53.004;6.770;2023-11-18T16:59:11;6.20;99.90
54178;DHT22;40085;53.004;6.770;2023-11-18T17:01:37;6.20;99.90
54178;DHT22;40085;53.004;6.770;2023-11-18T17:04:03;6.20;99.90
54178;DHT22;40085;53.004;6.770;2023-11-18T17:06:29;6.30;99.90
54178;DHT22;40085;53.004;6.770;2023-11-18T20:00:00;7.40;99.90
54178;DHT22;40085;53.004;6.770;2023-11-18T20:02:30;7.20;99.90
54178;DHT22;40085;53.004;6.770;2023-11-18T20:04:55;7.20;99.90
54178;DHT22;40085;53.004;6.770;2023-11-18T20:07:21;7.30;99.90
54178;DHT22;40085;53.004;6.770;2023-11-18T20:09:46;7.30;99.90
54178;DHT22;40085;53.004;6.770;2023-11-18T20:12:12;7.30;99.90
54178;DHT22;40085;53.004;6.770;2023-11-18T20:14:38;7.30;99.90
54178;DHT22;40085;53.004;6.770;2023-11-18T20:17:03;7.30;99.90
54178;DHT22;40085;53.004;6.770;2023-11-18T20:19:30;7.40;99.90
54178;DHT22;40085;53.004;6.770;2023-11-18T20:21:58;7.30;99.90
54178;DHT22;40085;53.004;6.770;2023-11-18T20:24:23;7.40;99.90
54178;DHT22;40085;53.004;6.770;2023-11-18T20:26:49;7.40;99.90
54178;DHT22;40085;53.004;6.770;2023-11-18T20:29:15;7.40;99.90
54178;DHT22;40085;53.004;6.770;2023-11-18T20:31:40;7.40;99.90
54178;DHT22;40085;53.004;6.770;2023-11-18T20:34:06;7.40;99.90
54178;DHT22;40085;53.004;6.770;2023-11-18T20:36:32;7.40;99.90
54178;DHT22;40085;53.004;6.770;2023-11-18T20:38:57;7.50;99.90
54178;DHT22;40085;53.004;6.770;2023-11-18T20:41:23;7.50;99.90
54178;DHT22;40085;53.004;6.770;2023-11-18T20:43:49;7.50;99.90
54178;DHT22;40085;53.004;6.770;2023-11-18T20:46:15;7.60;99.90
54178;DHT22;40085;53.004;6.770;2023-11-18T20:48:42;7.40;99.90
54178;DHT22;40085;53.004;6.770;2023-11-18T20:51:08;7.60;99.90
54178;DHT22;40085;53.004;6.770;2023-11-18T20:53:37;7.70;99.90
54178;DHT22;40085;53.004;6.770;2023-11-18T20:56:03;7.80;99.90
54178;DHT22;40085;53.004;6.770;2023-11-18T20:58:29;7.80;99.90
54178;DHT22;40085;53.004;6.770;2023-11-18T21:00:55;7.80;99.90
54178;DHT22;40085;53.004;6.770;2023-11-18T21:03:21;7.80;99.90
54178;DHT22;40085;53.004;6.770;2023-11-18T21:05:48;8.00;99.90
54178;DHT22;40085;53.004;6.770;2023-11-18T21:08:14;8.00;99.90
54178;DHT22;40085;53.004;6.770;2023-11-18T21:10:44;8.10;99.90
54178;DHT22;40085;53.004;6.770;2023-11-18T21:13:10;8.10;99.90
54178;DHT22;40085;53.004;6.770;2023-11-18T21:15:37;8.10;99.90
54178;DHT22;40085;53.004;6.770;2023-11-18T21:18:03;8.10;99.90
54178;DHT22;40085;53.004;6.770;2023-11-18T21:20:29;8.10;99.90
54178;DHT22;40085;53.004;6.770;2023-11-18T21:22:55;8.10;99.90
54178;DHT22;40085;53.004;6.770;2023-11-18T21:25:23;8.40;99.90
54178;DHT22;40085;53.004;6.770;2023-11-18T21:27:48;8.10;99.90
54178;DHT22;40085;53.004;6.770;2023-11-18T21:30:17;8.20;99.90
54178;DHT22;40085;53.004;6.770;2023-11-18T21:32:43;8.30;99.90
54178;DHT22;40085;53.004;6.770;2023-11-18T21:35:14;8.30;99.90
54178;DHT22;40085;53.004;6.770;2023-11-18T21:37:43;8.40;99.90
54178;DHT22;40085;53.004;6.770;2023-11-18T21:40:10;8.40;99.90
54178;DHT22;40085;53.004;6.770;2023-11-18T21:42:41;8.50;99.90
54178;DHT22;40085;53.004;6.770;2023-11-18T21:45:07;8.50;99.90
54178;DHT22;40085;53.004;6.770;2023-11-18T21:47:33;8.50;99.90
54178;DHT22;40085;53.004;6.770;2023-11-18T21:49:59;8.60;99.90
54178;DHT22;40085;53.004;6.770;2023-11-18T21:52:25;8.60;99.90